Time;durP1;ratioP1;P1;durP2;ratioP2;P2;SDS_P1;SDS_P2;PMS_P1;PMS_P2;Temp;Humidity;BMP_temperature;BMP_pressure;BME280_temperature;BME280_humidity;BME280_pressure;Samples;Min_cycle;Max_cycle;Signal;HPM_P1;HPM_P2
2022/06/19 00:00:34;;;;;;;10.80;3.08;;;;;;;20.60;57.49;100763.50;5055631;28;20481;-63
2022/06/19 00:03:05;;;;;;;8.27;2.60;;;;;;;20.61;57.38;100763.47;5055570;28;20120;-63
2022/06/19 00:05:31;;;;;;;13.82;3.13;;;;;;;20.56;57.60;100761.88;5055563;28;20033;-64
2022/06/19 00:07:57;;;;;;;9.52;2.88;;;;;;;20.38;57.20;100750.72;5055390;28;20040;-63
2022/06/19 00:10:22;;;;;;;9.80;2.97;;;;;;;20.28;57.68;100765.38;5055405;28;20021;-64
2022/06/19 00:12:47;;;;;;;10.57;2.88;;;;;;;20.32;58.07;100758.09;5055520;28;20589;-64
2022/06/19 00:15:13;;;;;;;11.43;2.97;;;;;;;20.28;57.79;100754.63;5055405;28;20104;-64
2022/06/19 00:17:39;;;;;;;10.70;2.92;;;;;;;20.23;57.60;100748.53;5055444;28;20052;-62
2022/06/19 00:20:06;;;;;;;9.57;2.85;;;;;;;20.18;57.42;100754.03;5055167;28;20504;-64
2022/06/19 00:22:31;;;;;;;10.13;2.95;;;;;;;20.26;57.49;100748.44;5055564;28;20052;-64
2022/06/19 00:24:56;;;;;;;9.98;2.80;;;;;;;20.22;57.42;100747.66;5055302;28;20033;-64
2022/06/19 00:27:23;;;;;;;10.15;2.63;;;;;;;20.26;57.13;100748.44;5055037;28;20410;-63
2022/06/19 00:29:49;;;;;;;10.02;2.80;;;;;;;20.14;57.39;100748.81;5055414;28;20387;-64
2022/06/19 00:32:14;;;;;;;10.35;2.80;;;;;;;19.99;57.32;100758.19;5054881;28;20040;-63
2022/06/19 00:34:40;;;;;;;8.68;2.88;;;;;;;20.08;57.16;100762.41;5055090;28;20433;-64
2022/06/19 00:37:06;;;;;;;15.75;3.10;;;;;;;19.90;57.69;100785.28;5054873;28;20033;-63
2022/06/19 00:39:42;;;;;;;9.35;2.90;;;;;;;19.80;58.50;100786.47;5054873;28;20099;-64
2022/06/19 00:42:11;;;;;;;13.68;2.80;;;;;;;19.77;58.61;100780.25;5055194;28;20032;-64
2022/06/19 00:44:36;;;;;;;11.00;2.90;;;;;;;19.82;57.82;100777.44;5054906;28;20021;-64
2022/06/19 00:47:21;;;;;;;9.77;2.83;;;;;;;19.93;57.34;100775.34;5054832;28;20025;-64
2022/06/19 00:49:49;;;;;;;13.98;2.88;;;;;;;19.92;57.06;100770.03;5054817;28;20028;-63
2022/06/19 00:52:22;;;;;;;8.88;2.90;;;;;;;19.76;57.44;100780.31;5054817;28;20075;-64
2022/06/19 00:54:53;;;;;;;11.13;3.00;;;;;;;19.70;57.53;100781.38;5054823;28;20056;-64
2022/06/19 00:57:19;;;;;;;10.70;2.70;;;;;;;19.59;57.05;100772.72;5054553;28;20060;-64
2022/06/19 00:59:53;;;;;;;15.13;3.25;;;;;;;19.45;57.16;100767.72;5054451;28;20493;-64
2022/06/19 01:02:20;;;;;;;9.80;3.10;;;;;;;19.44;57.04;100782.06;5054632;28;20060;-64
2022/06/19 01:04:53;;;;;;;11.77;2.90;;;;;;;19.38;56.84;100782.22;5054619;28;20363;-63
2022/06/19 01:07:21;;;;;;;11.65;2.80;;;;;;;19.30;56.53;100768.13;5054458;28;20076;-64
2022/06/19 01:09:47;;;;;;;11.13;2.95;;;;;;;19.18;56.14;100776.47;5052224;28;20852;-64
2022/06/19 01:12:13;;;;;;;10.32;3.10;;;;;;;19.22;56.66;100768.31;5054235;28;20029;-64
2022/06/19 01:14:42;;;;;;;9.38;3.05;;;;;;;19.20;56.17;100758.59;5054327;28;20487;-63
2022/06/19 01:17:10;;;;;;;10.93;2.83;;;;;;;19.05;55.57;100767.88;5052927;28;20075;-64
2022/06/19 01:19:39;;;;;;;15.02;3.40;;;;;;;18.83;56.10;100788.09;5054418;28;20378;-64
2022/06/19 01:22:07;;;;;;;9.75;2.80;;;;;;;18.81;56.47;100839.00;5053889;28;20047;-64
2022/06/19 01:25:13;;;;;;;12.02;3.10;;;;;;;18.94;56.29;100942.22;5054346;28;20060;-64
2022/06/19 01:30:45;;;;;;;14.38;3.10;;;;;;;18.70;54.90;100828.53;5053997;28;20106;-64
2022/06/19 01:33:16;;;;;;;12.27;2.83;;;;;;;18.67;54.64;100833.94;5053733;28;20029;-64
2022/06/19 01:35:45;;;;;;;15.23;3.00;;;;;;;18.90;58.38;100888.78;5054209;28;20059;-64
2022/06/19 01:38:16;;;;;;;10.75;2.88;;;;;;;18.79;53.96;100898.84;5053916;28;20049;-64
2022/06/19 01:40:45;;;;;;;9.35;2.70;;;;;;;18.69;53.28;100861.56;5053922;28;20035;-64
2022/06/19 01:43:10;;;;;;;10.43;3.13;;;;;;;18.71;53.37;100838.34;5052560;28;20029;-63
2022/06/19 01:45:41;;;;;;;8.57;2.60;;;;;;;18.55;52.82;100884.19;5054054;28;20087;-63
2022/06/19 01:48:06;;;;;;;11.00;2.92;;;;;;;18.49;52.32;100914.59;5053791;28;20425;-64
2022/06/19 01:50:32;;;;;;;12.57;3.00;;;;;;;18.67;51.88;100875.84;5053615;28;20059;-63
2022/06/19 01:53:08;;;;;;;14.90;3.22;;;;;;;18.61;51.38;100870.66;5053512;28;20029;-64
2022/06/19 01:55:35;;;;;;;11.85;2.88;;;;;;;18.58;51.81;100890.31;5053481;28;20479;-64
2022/06/19 01:58:01;;;;;;;11.15;2.70;;;;;;;18.41;53.12;100876.41;5053723;28;20021;-63
2022/06/19 02:00:31;;;;;;;11.27;2.90;;;;;;;18.41;51.73;100881.78;5053368;28;20562;-64
2022/06/19 02:03:09;;;;;;;13.05;3.08;;;;;;;18.33;52.06;100892.66;5053523;28;20021;-63
2022/06/19 02:05:36;;;;;;;11.93;3.00;;;;;;;18.25;52.03;100882.09;5053437;28;20166;-64
2022/06/19 02:08:03;;;;;;;12.77;3.10;;;;;;;18.08;51.25;100896.72;5053210;28;20021;-64
2022/06/19 02:10:29;;;;;;;14.50;3.10;;;;;;;18.01;50.25;100901.28;5053545;28;20021;-64
2022/06/19 02:12:56;;;;;;;14.32;3.33;;;;;;;17.96;50.08;100882.66;5053216;28;20127;-64
2022/06/19 02:15:21;;;;;;;11.85;3.17;;;;;;;17.80;50.26;100883.00;5053390;28;20432;-63
2022/06/19 02:17:51;;;;;;;15.60;3.20;;;;;;;17.81;52.75;100900.78;5053127;28;20025;-64
2022/06/19 02:20:19;;;;;;;14.02;3.05;;;;;;;17.71;49.02;100884.88;5053006;28;20451;-64
2022/06/19 02:22:45;;;;;;;10.15;2.88;;;;;;;17.79;49.43;100879.44;5053180;28;20028;-63
2022/06/19 02:25:10;;;;;;;9.60;2.78;;;;;;;17.78;48.99;100880.34;5053154;28;20037;-64
2022/06/19 02:27:37;;;;;;;11.80;2.60;;;;;;;17.80;49.57;100891.00;5053210;28;20136;-64
2022/06/19 02:30:06;;;;;;;13.48;3.33;;;;;;;17.73;48.35;100891.09;5053233;28;20025;-63
2022/06/19 02:32:38;;;;;;;8.48;2.30;;;;;;;17.67;48.70;100883.16;5053211;28;20029;-62
2022/06/19 02:35:05;;;;;;;14.85;2.83;;;;;;;17.70;48.55;100901.84;5053050;28;20029;-63
2022/06/19 02:37:39;;;;;;;12.07;2.70;;;;;;;17.57;49.09;100907.44;5053263;28;20029;-63
2022/06/19 02:40:38;;;;;;;12.77;2.83;;;;;;;17.68;49.58;100900.97;5053084;28;20029;-63
2022/06/19 02:43:09;;;;;;;11.18;2.70;;;;;;;17.60;47.80;100905.59;5052782;28;20032;-63
2022/06/19 02:45:38;;;;;;;10.25;2.60;;;;;;;17.57;50.18;100905.63;5052889;28;20033;-64
2022/06/19 02:48:04;;;;;;;10.63;2.70;;;;;;;17.49;47.76;100907.53;5052792;28;20033;-64
2022/06/19 02:50:33;;;;;;;9.57;2.72;;;;;;;17.56;47.38;100913.66;5053288;28;20040;-64
2022/06/19 02:52:59;;;;;;;15.52;2.67;;;;;;;17.55;47.16;100888.72;5052033;28;20344;-64
2022/06/19 02:55:25;;;;;;;6.97;2.03;;;;;;;17.61;49.07;100891.31;5052872;28;20060;-63
2022/06/19 02:57:51;;;;;;;8.35;2.40;;;;;;;17.59;47.26;100889.56;5052817;28;20029;-63
2022/06/19 03:00:20;;;;;;;12.10;2.45;;;;;;;17.57;46.60;100894.94;5052617;28;20443;-64
2022/06/19 03:02:50;;;;;;;12.75;2.95;;;;;;;17.57;46.73;100935.03;5053725;28;20029;-63
2022/06/19 03:05:22;;;;;;;9.98;2.35;;;;;;;17.61;49.94;101002.66;5052677;28;20056;-64
2022/06/19 03:07:48;;;;;;;10.53;2.70;;;;;;;17.66;48.70;101011.50;5052957;28;20479;-63
2022/06/19 03:10:14;;;;;;;10.02;2.55;;;;;;;17.56;47.62;100976.03;5052660;28;20267;-63
2022/06/19 03:12:40;;;;;;;10.15;2.70;;;;;;;17.42;48.19;100960.19;5052476;28;20108;-64
2022/06/19 03:15:06;;;;;;;8.32;2.83;;;;;;;17.38;48.05;100931.75;5052618;28;20100;-63
2022/06/19 03:17:32;;;;;;;13.85;2.65;;;;;;;17.31;48.27;100931.91;5052758;28;20021;-64
2022/06/19 03:19:57;;;;;;;11.48;2.40;;;;;;;17.33;49.48;100949.63;5052629;28;20390;-63
2022/06/19 03:22:23;;;;;;;10.70;2.20;;;;;;;17.27;49.56;100933.72;5052793;28;20029;-64
2022/06/19 03:24:48;;;;;;;8.60;2.40;;;;;;;17.27;48.30;100913.25;5052491;28;20438;-64
2022/06/19 03:27:14;;;;;;;5.65;1.95;;;;;;;17.15;48.46;100885.84;5052165;28;20057;-63
2022/06/19 03:29:40;;;;;;;10.73;2.33;;;;;;;17.10;48.04;100877.03;5052558;28;20060;-63
2022/06/19 03:32:08;;;;;;;11.68;2.50;;;;;;;17.09;48.85;100899.31;5052522;28;20482;-63
2022/06/19 03:34:34;;;;;;;10.50;2.10;;;;;;;17.17;49.26;100929.41;5056300;28;20107;-63
2022/06/19 03:36:59;;;;;;;13.73;2.70;;;;;;;17.14;47.19;100924.13;5056450;28;20155;-63
2022/06/19 03:39:25;;;;;;;11.63;2.40;;;;;;;17.10;47.09;100904.59;5056422;28;20142;-63
2022/06/19 03:41:50;;;;;;;8.20;2.15;;;;;;;16.99;47.40;100886.06;5056170;28;20037;-63
2022/06/19 03:44:16;;;;;;;7.07;2.17;;;;;;;16.92;47.51;100871.06;5055863;28;20470;-63
2022/06/19 03:46:41;;;;;;;9.25;2.00;;;;;;;16.85;47.11;100864.03;5054819;28;20033;-64
2022/06/19 03:49:09;;;;;;;14.10;2.08;;;;;;;16.76;47.96;100883.75;5055875;28;20060;-63
2022/06/19 03:51:35;;;;;;;7.32;2.10;;;;;;;16.69;48.41;100842.00;5056081;28;20116;-63
2022/06/19 03:54:00;;;;;;;7.97;2.00;;;;;;;16.63;47.56;100849.22;5055606;28;20060;-63
2022/06/19 03:56:30;;;;;;;9.00;2.30;;;;;;;16.62;48.32;100899.03;5055627;28;20099;-64
2022/06/19 03:58:56;;;;;;;8.98;2.05;;;;;;;16.86;49.34;100959.22;5055582;28;20517;-64
2022/06/19 04:01:26;;;;;;;8.13;2.03;;;;;;;16.78;47.71;100988.66;5055887;28;20116;-64
2022/06/19 04:03:53;;;;;;;6.45;2.08;;;;;;;16.72;47.50;100967.41;5055894;28;20025;-64
2022/06/19 04:06:21;;;;;;;12.10;2.10;;;;;;;16.71;47.61;100927.38;5055658;28;20497;-64
2022/06/19 04:08:47;;;;;;;10.82;2.10;;;;;;;16.72;47.60;100934.47;5055512;28;20429;-63
2022/06/19 04:11:14;;;;;;;10.18;2.50;;;;;;;16.65;47.49;100914.09;5055638;28;20466;-63
2022/06/19 04:13:40;;;;;;;9.13;2.03;;;;;;;16.70;48.72;100889.16;5055853;28;20036;-63
2022/06/19 04:16:07;;;;;;;10.43;1.80;;;;;;;16.65;47.38;100858.06;5055357;28;20033;-63
2022/06/19 04:18:33;;;;;;;14.73;2.35;;;;;;;16.60;47.48;100843.91;5055586;28;20051;-63
2022/06/19 04:20:59;;;;;;;7.57;1.98;;;;;;;16.59;49.74;100821.69;5055292;28;20025;-62
2022/06/19 04:23:26;;;;;;;7.80;2.20;;;;;;;16.58;48.07;100805.72;5055061;28;20029;-63
2022/06/19 04:25:52;;;;;;;7.03;2.10;;;;;;;16.62;48.56;100786.97;5054925;28;20064;-63
2022/06/19 04:28:19;;;;;;;7.32;2.00;;;;;;;16.72;48.42;100758.34;5055125;28;20122;-63
2022/06/19 04:30:46;;;;;;;5.30;1.80;;;;;;;16.73;48.32;100757.47;5055009;28;20471;-63
2022/06/19 04:33:16;;;;;;;16.23;2.30;;;;;;;16.73;49.03;100752.16;5055302;28;20083;-63
2022/06/19 04:35:42;;;;;;;12.13;2.03;;;;;;;16.76;48.77;100739.63;5055225;28;20029;-62
2022/06/19 04:38:07;;;;;;;16.70;2.63;;;;;;;16.73;49.76;100728.13;5054808;28;20021;-63
2022/06/19 04:40:35;;;;;;;7.15;1.88;;;;;;;16.81;48.50;100738.69;5055357;28;20068;-63
2022/06/19 04:43:00;;;;;;;10.90;2.17;;;;;;;16.91;48.81;100742.94;5055279;28;20057;-63
2022/06/19 04:45:25;;;;;;;9.35;2.20;;;;;;;17.00;48.94;100751.69;5054747;28;20052;-63
2022/06/19 04:47:51;;;;;;;10.75;2.50;;;;;;;17.02;48.19;100732.97;5054841;28;20029;-63
2022/06/19 04:50:16;;;;;;;9.98;2.08;;;;;;;17.11;48.08;100745.28;5054969;28;20075;-63
2022/06/19 04:52:42;;;;;;;8.43;2.15;;;;;;;17.15;48.13;100750.53;5054549;28;20542;-63
2022/06/19 04:55:09;;;;;;;7.32;2.10;;;;;;;17.24;48.62;100726.34;5054878;28;20033;-64
2022/06/19 04:57:34;;;;;;;10.02;2.17;;;;;;;17.23;48.70;100689.88;5054783;28;20033;-63
2022/06/19 05:00:00;;;;;;;9.95;2.38;;;;;;;17.28;48.92;100661.28;5054849;28;20052;-63
2022/06/19 05:02:25;;;;;;;10.82;2.22;;;;;;;17.26;48.16;100663.13;5054619;28;20095;-63
2022/06/19 05:04:51;;;;;;;8.00;2.13;;;;;;;17.30;48.36;100687.97;5054417;28;20493;-63
2022/06/19 05:07:16;;;;;;;8.25;2.17;;;;;;;17.42;48.07;100713.53;5054246;28;20431;-64
2022/06/19 05:09:41;;;;;;;9.18;2.40;;;;;;;17.35;47.62;100701.22;5054243;28;20036;-64
2022/06/19 05:12:07;;;;;;;8.40;2.28;;;;;;;17.41;47.62;100722.47;5054245;28;20112;-64
2022/06/19 05:14:32;;;;;;;9.38;2.22;;;;;;;17.39;47.75;100756.34;5054516;28;20510;-64
2022/06/19 05:16:58;;;;;;;8.52;2.08;;;;;;;17.53;47.91;100768.53;5054101;28;20033;-63
2022/06/19 05:19:23;;;;;;;8.50;2.10;;;;;;;17.65;46.91;100756.72;5054398;28;20048;-63
2022/06/19 05:21:48;;;;;;;9.32;2.20;;;;;;;17.86;47.51;100762.56;5053829;28;20099;-63
2022/06/19 05:24:14;;;;;;;8.07;2.05;;;;;;;17.99;47.15;100759.63;5054285;28;20112;-63
2022/06/19 05:26:39;;;;;;;7.65;2.25;;;;;;;18.06;46.63;100759.47;5053957;28;20045;-63
2022/06/19 05:29:04;;;;;;;10.23;2.10;;;;;;;18.12;45.54;100776.28;5054305;28;20029;-63
2022/06/19 05:31:31;;;;;;;8.85;2.13;;;;;;;18.24;45.58;100805.47;5054584;28;20483;-63
2022/06/19 05:33:57;;;;;;;7.13;2.10;;;;;;;18.39;45.18;100803.34;5054177;28;20033;-62
2022/06/19 05:36:28;;;;;;;11.25;2.30;;;;;;;18.51;44.90;100811.09;5053684;28;20056;-62
2022/06/19 05:38:54;;;;;;;13.93;2.40;;;;;;;18.70;45.75;100828.53;5053809;28;20467;-63
2022/06/19 05:41:19;;;;;;;12.95;2.47;;;;;;;18.83;45.72;100849.66;5054046;28;20025;-63
2022/06/19 05:43:48;;;;;;;9.25;2.40;;;;;;;18.99;44.80;100881.41;5053951;28;20040;-63
2022/06/19 05:46:15;;;;;;;7.45;2.28;;;;;;;19.12;44.89;100881.13;5053563;28;20174;-63
2022/06/19 05:48:41;;;;;;;9.88;2.30;;;;;;;19.41;44.35;100889.31;5053624;28;20382;-63
2022/06/19 05:51:10;;;;;;;5.82;2.03;;;;;;;19.52;43.87;100894.41;5053378;28;20029;-63
2022/06/19 05:53:39;;;;;;;6.60;2.05;;;;;;;19.82;43.92;100881.16;5053529;28;20052;-63
2022/06/19 05:56:05;;;;;;;6.75;2.17;;;;;;;19.97;44.27;100870.91;5053263;28;20036;-63
2022/06/19 05:58:32;;;;;;;8.02;2.30;;;;;;;19.90;43.25;100863.94;5053511;28;20025;-63
2022/06/19 06:00:57;;;;;;;5.88;2.03;;;;;;;19.79;43.06;100889.31;5053595;28;20063;-64
2022/06/19 06:03:24;;;;;;;11.73;2.35;;;;;;;19.77;43.32;100918.81;5053453;28;20056;-63
2022/06/19 06:05:50;;;;;;;12.80;2.20;;;;;;;19.75;43.41;100937.63;5053121;28;20479;-63
2022/06/19 06:08:16;;;;;;;9.50;2.60;;;;;;;19.73;44.42;100923.38;5053519;28;20090;-63
2022/06/19 06:10:42;;;;;;;12.48;2.20;;;;;;;19.70;44.32;100934.19;5052140;28;20075;-63
2022/06/19 06:13:07;;;;;;;10.25;2.45;;;;;;;19.61;44.15;100961.22;5052004;28;20094;-63
2022/06/19 06:15:33;;;;;;;9.75;2.30;;;;;;;19.49;44.25;100957.03;5053489;28;20056;-63
2022/06/19 06:17:59;;;;;;;9.27;2.50;;;;;;;19.41;44.58;100966.16;5053467;28;20013;-63
2022/06/19 06:20:26;;;;;;;8.85;2.10;;;;;;;19.46;44.13;100980.34;5053063;28;20072;-64
2022/06/19 06:22:52;;;;;;;8.30;2.22;;;;;;;19.50;44.45;100980.22;5053357;28;20029;-63
2022/06/19 06:25:17;;;;;;;12.38;2.40;;;;;;;19.42;45.23;100971.47;5053218;28;20433;-63
2022/06/19 06:27:43;;;;;;;10.95;2.50;;;;;;;19.27;45.73;100988.81;5053450;28;20045;-63
2022/06/19 06:30:11;;;;;;;10.70;2.35;;;;;;;19.22;45.21;101032.66;5053158;28;20406;-63
2022/06/19 06:32:36;;;;;;;11.75;2.40;;;;;;;19.16;46.25;101071.22;5053004;28;20021;-64
2022/06/19 06:35:01;;;;;;;10.52;2.50;;;;;;;19.06;47.63;101092.84;5053408;28;20029;-63
2022/06/19 06:37:27;;;;;;;17.45;2.97;;;;;;;18.95;49.93;101110.03;5052928;28;20035;-63
2022/06/19 06:39:52;;;;;;;12.23;2.88;;;;;;;18.84;52.33;101146.81;5053224;28;20112;-65
2022/06/19 06:42:18;;;;;;;15.20;2.90;;;;;;;18.74;53.21;101205.00;5053248;28;20104;-66
2022/06/19 06:44:43;;;;;;;9.98;2.40;;;;;;;18.57;53.89;101204.38;5052927;28;20104;-67
2022/06/19 06:47:08;;;;;;;7.32;2.30;;;;;;;18.52;54.06;101188.41;5051821;28;20029;-67
2022/06/19 06:49:34;;;;;;;13.57;2.60;;;;;;;18.46;55.37;101207.25;5052677;28;20029;-67
2022/06/19 06:51:59;;;;;;;9.43;2.60;;;;;;;18.45;55.46;101196.53;5053186;28;20450;-67
2022/06/19 06:54:25;;;;;;;9.13;2.50;;;;;;;18.42;54.73;101188.59;5052714;28;20450;-67
2022/06/19 06:56:50;;;;;;;9.23;2.28;;;;;;;18.40;55.29;101185.91;5052908;28;20025;-67
2022/06/19 06:59:16;;;;;;;11.63;2.40;;;;;;;18.45;55.52;101167.09;5052741;28;20029;-67
2022/06/19 07:01:41;;;;;;;15.63;2.58;;;;;;;18.47;55.10;101154.59;5052723;28;20029;-67
2022/06/19 07:04:08;;;;;;;9.32;2.58;;;;;;;18.56;55.78;101162.47;5052902;28;20025;-67
2022/06/19 07:06:33;;;;;;;9.10;2.38;;;;;;;18.54;55.04;101145.53;5052577;28;20029;-67
2022/06/19 07:08:59;;;;;;;6.97;2.30;;;;;;;18.53;55.90;101135.75;5056073;28;20032;-68
2022/06/19 07:11:35;;;;;;;10.32;2.45;;;;;;;18.51;55.49;101157.19;5056419;28;20025;-67
2022/06/19 07:14:01;;;;;;;10.73;2.38;;;;;;;18.45;55.92;101159.97;5056646;28;20097;-67
2022/06/19 07:16:26;;;;;;;13.93;2.42;;;;;;;18.32;54.86;101171.78;5056424;28;20470;-67
2022/06/19 07:18:52;;;;;;;9.32;2.40;;;;;;;18.29;54.81;101189.69;5056489;28;20033;-67
2022/06/19 07:21:17;;;;;;;8.40;2.10;;;;;;;18.12;54.61;101189.94;5056449;28;20163;-67
2022/06/19 07:23:43;;;;;;;8.68;2.28;;;;;;;17.92;55.38;101209.81;5056402;28;20052;-67
2022/06/19 07:26:11;;;;;;;10.80;2.38;;;;;;;17.85;57.39;101210.78;5056000;28;20533;-68
2022/06/19 07:28:37;;;;;;;7.65;2.40;;;;;;;17.74;57.43;101192.25;5056140;28;20021;-68
2022/06/19 07:31:02;;;;;;;10.35;2.55;;;;;;;17.73;57.84;101177.09;5056162;28;20031;-68
2022/06/19 07:33:28;;;;;;;7.45;2.17;;;;;;;17.61;58.90;101150.53;5056115;28;20091;-68
2022/06/19 07:35:53;;;;;;;11.48;2.60;;;;;;;17.45;59.74;101103.53;5056079;28;20025;-69
2022/06/19 07:38:18;;;;;;;10.02;2.30;;;;;;;17.36;61.91;101074.28;5055982;28;20036;-68
2022/06/19 07:40:44;;;;;;;14.52;2.60;;;;;;;17.15;62.82;101067.41;5055996;28;20029;-69
2022/06/19 07:43:09;;;;;;;11.60;2.38;;;;;;;17.04;63.92;101072.88;5056051;28;20024;-72
2022/06/19 07:45:35;;;;;;;12.70;2.40;;;;;;;16.91;64.62;101088.16;5055738;28;20390;-70
2022/06/19 07:50:46;;;;;;;10.20;2.47;;;;;;;16.81;65.85;100985.09;5056069;28;20040;-70
2022/06/19 07:53:12;;;;;;;11.85;2.70;;;;;;;16.69;66.48;100974.53;5056016;28;20025;-70
2022/06/19 07:55:39;;;;;;;9.32;2.63;;;;;;;16.78;65.83;101028.69;5055716;28;20031;-70
2022/06/19 07:58:05;;;;;;;10.40;2.38;;;;;;;16.62;65.65;101107.13;5055637;28;20037;-70
2022/06/19 08:00:34;;;;;;;9.63;2.30;;;;;;;16.63;66.88;101151.59;5055752;28;20051;-70
2022/06/19 08:03:00;;;;;;;10.73;2.40;;;;;;;16.72;65.61;101167.53;5055634;28;20025;-69
2022/06/19 08:05:29;;;;;;;10.05;3.17;;;;;;;16.76;65.25;101171.97;5055620;28;20037;-70
2022/06/19 08:07:57;;;;;;;9.00;2.33;;;;;;;16.94;64.96;101149.53;5055394;28;20052;-70
2022/06/19 08:10:30;;;;;;;10.57;3.08;;;;;;;16.91;66.68;101100.63;5055534;28;20045;-70
2022/06/19 08:12:55;;;;;;;11.77;2.67;;;;;;;16.89;66.78;101076.63;5055282;28;20040;-71
2022/06/19 08:15:21;;;;;;;8.18;2.60;;;;;;;16.92;66.75;101078.38;5055364;28;20028;-71
2022/06/19 08:17:47;;;;;;;12.48;2.58;;;;;;;17.01;67.41;101067.59;5055394;28;20059;-72
2022/06/19 08:20:13;;;;;;;9.40;2.65;;;;;;;16.97;67.37;101114.81;5054893;28;20059;-70
2022/06/19 08:22:40;;;;;;;11.20;2.60;;;;;;;16.83;66.40;101166.53;5055385;28;20025;-72
2022/06/19 08:25:06;;;;;;;13.13;2.60;;;;;;;16.87;64.31;101138.94;5055162;28;20083;-71
2022/06/19 08:27:36;;;;;;;13.25;2.25;;;;;;;17.08;67.84;101079.06;5054732;28;20044;-71
2022/06/19 08:30:05;;;;;;;9.35;2.40;;;;;;;17.00;68.48;101055.13;5055058;28;20032;-73
2022/06/19 08:32:30;;;;;;;14.20;3.38;;;;;;;17.06;68.98;101078.22;5053694;28;20025;-72
2022/06/19 08:34:56;;;;;;;11.35;2.63;;;;;;;17.06;69.89;101057.75;5055302;28;20029;-70
2022/06/19 08:37:21;;;;;;;14.05;2.90;;;;;;;17.09;69.85;101041.69;5055040;28;20420;-72
2022/06/19 08:39:47;;;;;;;12.88;2.50;;;;;;;17.31;69.89;101036.94;5055158;28;20029;-72
2022/06/19 08:42:28;;;;;;;12.63;2.90;;;;;;;17.35;69.64;101032.44;5054824;28;20025;-72
2022/06/19 08:45:32;;;;;;;14.10;3.30;;;;;;;17.40;69.86;101020.78;5053717;28;20029;-71
2022/06/19 08:48:13;;;;;;;11.95;2.90;;;;;;;17.34;69.89;101030.66;5055093;28;20091;-70
2022/06/19 08:50:59;;;;;;;9.98;2.72;;;;;;;17.22;70.77;100989.00;5054944;28;20039;-72
2022/06/19 08:53:48;;;;;;;13.10;3.00;;;;;;;17.10;71.20;100962.47;5054765;28;20033;-73
2022/06/19 08:56:21;;;;;;;12.10;2.78;;;;;;;17.00;72.52;100965.28;5054698;28;20036;-72
2022/06/19 08:59:08;;;;;;;12.25;3.30;;;;;;;17.10;72.27;100999.84;5054431;28;20036;-71
2022/06/19 09:01:48;;;;;;;12.80;3.03;;;;;;;17.17;72.17;101005.09;5054855;28;20029;-73
2022/06/19 09:07:40;;;;;;;10.00;2.85;;;;;;;17.35;72.06;101019.09;5054590;28;20055;-73
2022/06/19 09:10:15;;;;;;;13.52;3.15;;;;;;;17.34;71.85;101025.31;5054549;28;20021;-73
2022/06/19 09:13:02;;;;;;;11.65;2.97;;;;;;;17.14;71.35;101025.59;5054701;28;20110;-72
2022/06/19 09:15:51;;;;;;;8.10;2.63;;;;;;;17.11;71.10;101065.69;5054200;28;20052;-77
2022/06/19 09:18:48;;;;;;;11.45;3.22;;;;;;;17.28;70.89;101087.72;5054171;28;20052;-73
2022/06/19 09:21:41;;;;;;;14.05;2.97;;;;;;;17.45;69.10;101119.56;5054200;28;20024;-73
2022/06/19 09:24:12;;;;;;;11.50;2.95;;;;;;;17.60;68.42;101138.06;5054405;28;20033;-73
2022/06/19 09:26:59;;;;;;;10.63;2.92;;;;;;;17.70;66.50;101133.47;5053869;28;20088;-73
2022/06/19 09:29:27;;;;;;;8.07;2.70;;;;;;;17.69;67.37;101134.38;5053914;28;20029;-73
2022/06/19 09:32:03;;;;;;;14.70;3.25;;;;;;;17.60;67.24;101110.44;5053464;28;20027;-72
2022/06/19 09:34:51;;;;;;;11.65;3.08;;;;;;;17.78;67.77;101128.94;5054193;28;20028;-72
2022/06/19 09:37:32;;;;;;;13.18;4.13;;;;;;;17.93;65.04;101117.13;5053895;28;20056;-73
2022/06/19 09:40:07;;;;;;;14.20;3.10;;;;;;;18.05;66.84;101111.59;5053812;28;20025;-72
2022/06/19 09:42:42;;;;;;;9.77;2.83;;;;;;;18.05;65.48;101103.56;5052587;28;20025;-73
2022/06/19 09:45:18;;;;;;;16.20;3.05;;;;;;;18.11;64.84;101094.56;5053953;28;20021;-72
2022/06/19 09:47:50;;;;;;;10.90;2.92;;;;;;;18.09;65.72;101067.84;5053768;28;20032;-72
2022/06/19 09:50:21;;;;;;;11.32;2.92;;;;;;;18.21;64.82;101061.41;5053642;28;20017;-72
2022/06/19 09:53:25;;;;;;;9.35;2.65;;;;;;;18.47;64.67;101028.84;5053442;28;20543;-72
2022/06/19 09:56:03;;;;;;;14.90;3.58;;;;;;;18.66;64.36;101037.38;5053135;28;20545;-72
2022/06/19 09:58:42;;;;;;;8.77;2.90;;;;;;;18.78;63.77;101053.25;5053642;28;20029;-72
2022/06/19 10:01:08;;;;;;;10.90;3.10;;;;;;;18.82;63.32;101051.38;5053861;28;20435;-72
2022/06/19 10:03:45;;;;;;;9.52;2.80;;;;;;;18.80;60.48;101021.97;5053472;28;20071;-72
2022/06/19 10:06:32;;;;;;;12.60;3.05;;;;;;;18.79;61.01;101013.97;5053796;28;20060;-72
2022/06/19 10:09:07;;;;;;;11.30;3.00;;;;;;;18.91;60.59;101001.19;5053352;28;20029;-72
2022/06/19 10:11:39;;;;;;;8.80;2.67;;;;;;;19.00;62.33;100992.09;5053341;28;20548;-71
2022/06/19 10:14:42;;;;;;;9.45;2.65;;;;;;;19.39;61.86;100995.66;5053377;28;20082;-72
2022/06/19 10:17:27;;;;;;;10.60;3.03;;;;;;;19.76;59.53;100984.09;5051685;28;20521;-72
2022/06/19 10:20:12;;;;;;;10.77;2.80;;;;;;;20.04;58.12;100967.28;5053248;28;20375;-72
2022/06/19 10:23:13;;;;;;;8.13;2.65;;;;;;;20.44;58.45;100972.47;5053116;28;20025;-71
2022/06/19 10:25:39;;;;;;;10.25;3.40;;;;;;;20.79;56.40;100979.53;5052642;28;20533;-71
2022/06/19 10:28:19;;;;;;;10.63;2.78;;;;;;;20.85;55.56;100984.72;5055843;28;20041;-71
2022/06/19 10:30:58;;;;;;;10.93;3.30;;;;;;;21.00;57.10;100973.53;5053515;28;20552;-71
2022/06/19 10:33:54;;;;;;;7.38;2.60;;;;;;;21.13;54.71;100978.53;5053281;28;20029;-71
2022/06/19 10:36:32;;;;;;;9.45;2.90;;;;;;;21.27;56.03;100995.09;5052959;28;20029;-71
2022/06/19 10:39:28;;;;;;;9.00;2.75;;;;;;;21.28;53.72;101026.41;5052940;28;20032;-71
2022/06/19 10:42:33;;;;;;;9.75;2.55;;;;;;;21.42;53.93;101015.28;5054873;28;20033;-70
2022/06/19 10:45:41;;;;;;;8.07;2.60;;;;;;;21.37;51.98;100999.31;5056968;28;20474;-70
2022/06/19 10:48:18;;;;;;;8.75;2.30;;;;;;;21.28;50.78;100988.78;5053693;28;20040;-70
2022/06/19 10:50:46;;;;;;;6.70;2.22;;;;;;;21.33;49.12;100991.41;5055925;28;20059;-70
2022/06/19 10:53:33;;;;;;;4.93;2.25;;;;;;;21.49;47.40;100982.75;5057000;28;20395;-70
2022/06/19 10:56:18;;;;;;;5.85;2.40;;;;;;;21.64;49.68;100992.16;5057016;28;20029;-70
2022/06/19 10:58:45;;;;;;;8.23;2.50;;;;;;;21.72;48.59;100997.28;5055632;28;20521;-70
2022/06/19 11:04:06;;;;;;;7.82;2.10;;;;;;;21.80;45.83;101035.59;5056845;28;20033;-70
2022/06/19 11:04:10;;;;;;;4.95;2.00;;;;;;;21.99;49.74;101041.22;5056594;28;20041;-69
2022/06/19 11:06:42;;;;;;;6.68;2.50;;;;;;;22.08;49.24;101048.09;5056719;28;20129;-70
2022/06/19 11:09:15;;;;;;;7.65;2.53;;;;;;;22.17;49.23;101058.59;5056448;28;20509;-69
2022/06/19 11:11:44;;;;;;;8.25;2.60;;;;;;;22.21;47.37;101036.03;5056972;28;20124;-69
2022/06/19 11:14:42;;;;;;;6.00;2.15;;;;;;;22.40;47.61;101039.84;5056580;28;20021;-69
2022/06/19 11:17:15;;;;;;;8.60;2.30;;;;;;;22.47;47.49;101044.06;5056727;28;20029;-69
2022/06/19 11:19:40;;;;;;;8.60;2.40;;;;;;;22.55;48.01;101048.31;5056750;28;20478;-69
2022/06/19 11:22:24;;;;;;;9.00;2.20;;;;;;;22.47;46.49;101062.91;5056341;28;20063;-69
2022/06/19 11:24:49;;;;;;;7.68;2.55;;;;;;;22.51;46.14;101074.47;5056191;28;20099;-69
2022/06/19 11:27:24;;;;;;;7.10;2.38;;;;;;;22.49;44.94;101079.03;5056179;28;20503;-69
2022/06/19 11:29:53;;;;;;;8.68;2.40;;;;;;;22.49;46.04;101073.66;5056422;28;20033;-69
2022/06/19 11:32:21;;;;;;;7.05;2.53;;;;;;;22.54;46.65;101070.78;5056080;28;20437;-69
2022/06/19 11:34:55;;;;;;;7.80;2.60;;;;;;;;;;5056223;28;20027;-68
2022/06/19 11:37:21;;;;;;;5.88;2.33;;;;;;;22.55;45.31;101078.81;5055991;28;20025;-69
2022/06/19 11:39:53;;;;;;;6.50;2.60;;;;;;;22.68;47.95;101077.44;5056284;28;20475;-68
2022/06/19 11:42:27;;;;;;;8.38;2.42;;;;;;;22.77;48.57;101075.34;5056194;28;20017;-69
2022/06/19 11:44:56;;;;;;;12.60;3.00;;;;;;;22.71;45.66;101080.03;5056243;28;20388;-69